createdAt,value
2018-11-28T06:53:58.920Z,-0.70
2018-11-28T06:56:29.371Z,-0.70
2018-11-28T06:58:58.106Z,-0.70
2018-11-28T07:01:26.983Z,-0.70
2018-11-28T07:03:55.576Z,-0.80
2018-11-28T07:06:24.334Z,-0.70
2018-11-28T07:08:53.185Z,-0.70
2018-11-28T07:11:21.848Z,-0.60
2018-11-28T07:13:50.551Z,-0.60
2018-11-28T07:16:19.054Z,-0.50
2018-11-28T07:19:09.309Z,-0.50
2018-11-28T07:21:37.939Z,-0.60
2018-11-28T07:24:07.320Z,-0.60
2018-11-28T07:26:35.912Z,-0.50
2018-11-28T07:29:05.124Z,-0.50
2018-11-28T07:31:33.615Z,-0.50
2018-11-28T07:34:02.358Z,-0.40
2018-11-28T07:36:30.992Z,-0.40
2018-11-28T07:38:59.671Z,-0.40
2018-11-28T07:41:28.533Z,-0.30
2018-11-28T07:43:57.105Z,-0.30
2018-11-28T07:46:25.720Z,-0.20
2018-11-28T07:48:54.362Z,-0.10
2018-11-28T07:51:23.432Z,-0.10
2018-11-28T07:53:52.098Z,0.00
2018-11-28T07:56:20.710Z,0.00
2018-11-28T07:58:49.252Z,0.10
2018-11-28T08:01:17.926Z,0.10
2018-11-28T08:03:46.415Z,0.20
2018-11-28T08:06:15.086Z,0.20
2018-11-28T08:08:43.735Z,0.30
2018-11-28T08:11:12.196Z,0.40
2018-11-28T08:13:40.850Z,0.40
2018-11-28T08:16:09.347Z,0.40
2018-11-28T08:18:37.989Z,0.40
2018-11-28T08:21:11.144Z,0.50
2018-11-28T08:23:39.720Z,0.50
2018-11-28T08:26:08.359Z,0.60
2018-11-28T08:28:37.098Z,0.60
2018-11-28T08:31:05.835Z,0.70
2018-11-28T08:33:34.350Z,0.70
2018-11-28T08:36:02.934Z,0.80
2018-11-28T08:38:31.578Z,0.80
2018-11-28T08:41:00.259Z,0.80
2018-11-28T08:43:28.802Z,0.90
2018-11-28T08:45:57.464Z,0.90
2018-11-28T08:48:26.063Z,0.90
2018-11-28T08:50:54.550Z,1.00
2018-11-28T08:53:23.154Z,1.00
2018-11-28T08:55:51.791Z,1.00
2018-11-28T08:58:20.369Z,1.10
2018-11-28T09:00:48.924Z,1.20
2018-11-28T09:03:17.340Z,1.30
2018-11-28T09:05:45.845Z,1.40
2018-11-28T09:08:14.381Z,1.40
2018-11-28T09:10:42.983Z,1.50
2018-11-28T09:13:11.489Z,1.60
2018-11-28T09:15:40.050Z,1.60
2018-11-28T09:18:08.451Z,1.60
2018-11-28T09:20:36.936Z,1.70
2018-11-28T09:23:06.473Z,1.70
2018-11-28T09:25:34.963Z,1.80
2018-11-28T09:28:03.579Z,1.90
2018-11-28T09:30:32.028Z,1.90
2018-11-28T09:33:00.580Z,1.90
2018-11-28T09:35:29.170Z,2.00
2018-11-28T09:37:57.676Z,2.00
2018-11-28T09:40:29.022Z,2.10
2018-11-28T09:42:58.434Z,2.10
2018-11-28T09:45:27.157Z,2.10
2018-11-28T09:47:55.664Z,2.30
2018-11-28T09:50:25.097Z,2.30
2018-11-28T09:52:53.737Z,2.30
2018-11-28T09:55:23.437Z,2.30
2018-11-28T09:57:51.912Z,2.30
2018-11-28T10:00:24.350Z,2.30
2018-11-28T10:03:00.051Z,2.30
2018-11-28T10:05:32.830Z,2.40
2018-11-28T10:08:01.441Z,2.40
2018-11-28T10:10:29.964Z,2.40
2018-11-28T10:12:58.526Z,2.40
2018-11-28T10:15:28.242Z,2.50
2018-11-28T10:17:56.761Z,2.60
2018-11-28T10:20:25.211Z,2.70
2018-11-28T10:22:53.762Z,2.70
2018-11-28T10:25:23.188Z,2.80
2018-11-28T10:27:58.709Z,2.90
2018-11-28T10:30:34.485Z,2.80
2018-11-28T10:33:03.000Z,2.90
2018-11-28T10:35:31.602Z,3.00
2018-11-28T10:38:00.175Z,3.10
2018-11-28T10:40:28.624Z,3.10
2018-11-28T10:42:58.224Z,3.00
2018-11-28T10:45:27.523Z,3.00
2018-11-28T10:47:56.170Z,3.00
2018-11-28T10:50:24.705Z,3.00
2018-11-28T10:52:53.214Z,3.00
2018-11-28T10:55:24.346Z,3.00
2018-11-28T10:58:22.084Z,2.90
2018-11-28T11:01:08.044Z,2.90
2018-11-28T11:03:54.019Z,2.90
2018-11-28T11:06:40.036Z,2.90
2018-11-28T11:09:27.193Z,3.00
2018-11-28T11:12:26.674Z,3.10
2018-11-28T11:14:55.179Z,3.10
2018-11-28T11:17:23.785Z,3.30
2018-11-28T11:19:52.380Z,3.30
2018-11-28T11:22:21.051Z,3.30
2018-11-28T11:24:49.644Z,3.30
2018-11-28T11:27:18.166Z,3.30
2018-11-28T11:29:46.696Z,3.40
2018-11-28T11:32:15.344Z,3.30
2018-11-28T11:34:43.859Z,3.20
2018-11-28T11:37:12.483Z,3.20
2018-11-28T11:39:41.054Z,3.20
2018-11-28T11:42:09.617Z,3.30
2018-11-28T11:44:38.172Z,3.30
2018-11-28T11:47:06.744Z,3.30
2018-11-28T11:49:35.267Z,3.30
2018-11-28T11:52:03.843Z,3.40
2018-11-28T11:54:32.395Z,3.40
2018-11-28T11:57:01.003Z,3.30
2018-11-28T11:59:29.530Z,3.30
2018-11-28T12:01:58.192Z,3.30
2018-11-28T12:04:26.701Z,3.30
2018-11-28T12:06:55.249Z,3.40
2018-11-28T12:09:23.866Z,3.50
2018-11-28T12:11:52.384Z,3.60
2018-11-28T12:14:21.035Z,3.60
2018-11-28T12:16:49.557Z,3.60
2018-11-28T12:19:18.084Z,3.50
2018-11-28T12:21:46.556Z,3.50
2018-11-28T12:24:15.070Z,3.50
2018-11-28T12:26:43.641Z,3.50
2018-11-28T12:29:12.093Z,3.60
2018-11-28T12:31:40.628Z,3.80
2018-11-28T12:34:09.212Z,4.20
2018-11-28T12:36:37.824Z,4.20
2018-11-28T12:39:09.364Z,4.10
2018-11-28T12:41:37.896Z,4.00
2018-11-28T12:44:06.458Z,3.90
2018-11-28T12:46:34.950Z,3.80
2018-11-28T12:49:03.492Z,3.70
2018-11-28T12:51:32.064Z,3.60
2018-11-28T12:54:00.756Z,3.60
2018-11-28T12:56:29.176Z,3.60
2018-11-28T12:58:57.813Z,3.50
2018-11-28T13:01:26.489Z,3.60
2018-11-28T13:03:54.935Z,3.60
2018-11-28T13:06:23.587Z,3.60
2018-11-28T13:08:52.137Z,3.60
2018-11-28T13:11:20.669Z,3.50
2018-11-28T13:13:49.370Z,3.50
2018-11-28T13:16:17.886Z,3.50
2018-11-28T13:18:46.402Z,3.40
2018-11-28T13:21:15.053Z,3.40
2018-11-28T13:23:43.506Z,3.40
2018-11-28T13:26:12.136Z,3.40
2018-11-28T13:28:40.698Z,3.40
2018-11-28T13:31:09.305Z,3.40
2018-11-28T13:33:37.912Z,3.40
2018-11-28T13:36:06.493Z,3.50
2018-11-28T13:38:35.102Z,3.40
2018-11-28T13:41:03.716Z,3.40
2018-11-28T13:43:32.254Z,3.40
2018-11-28T13:46:00.820Z,3.40
2018-11-28T13:48:29.328Z,3.30
2018-11-28T13:50:57.952Z,3.30
2018-11-28T13:53:29.509Z,3.30
2018-11-28T13:58:27.838Z,3.20
2018-11-28T14:00:56.413Z,3.10
2018-11-28T14:03:24.993Z,3.10
2018-11-28T14:05:53.767Z,3.10
2018-11-28T14:08:22.343Z,3.00
2018-11-28T14:10:51.122Z,3.00
2018-11-28T14:13:19.787Z,2.90
2018-11-28T14:15:48.356Z,2.90
2018-11-28T14:18:18.178Z,2.80
2018-11-28T14:20:46.862Z,2.80
2018-11-28T14:23:15.422Z,2.80
2018-11-28T14:25:44.074Z,2.70
2018-11-28T14:28:12.987Z,2.70
2018-11-28T14:30:42.268Z,2.70
2018-11-28T14:33:10.917Z,2.60
2018-11-28T14:35:39.898Z,2.50
2018-11-28T14:38:08.461Z,2.50
2018-11-28T14:40:37.046Z,2.40
2018-11-28T14:43:06.725Z,2.40
2018-11-28T14:45:35.561Z,2.40
2018-11-28T14:48:04.137Z,2.30
2018-11-28T14:50:32.938Z,2.30
2018-11-28T14:53:02.480Z,2.30
2018-11-28T14:55:32.638Z,2.30
2018-11-28T14:58:01.416Z,2.20
2018-11-28T15:00:49.406Z,2.20
2018-11-28T15:03:19.013Z,2.10
2018-11-28T15:06:09.623Z,2.10
2018-11-28T15:08:39.280Z,2.00
2018-11-28T15:11:09.796Z,2.00
2018-11-28T15:13:39.032Z,2.00
2018-11-28T15:16:07.718Z,2.00
2018-11-28T15:18:36.268Z,2.00
2018-11-28T15:21:05.112Z,1.90
2018-11-28T15:23:35.079Z,1.90
2018-11-28T15:26:04.151Z,1.90
2018-11-28T15:28:32.689Z,1.90
2018-11-28T15:31:01.258Z,1.90
2018-11-28T15:33:29.798Z,1.80
2018-11-28T15:35:58.416Z,1.70
2018-11-28T15:38:27.087Z,1.70
2018-11-28T15:40:55.522Z,1.70
2018-11-28T15:43:24.010Z,1.70
2018-11-28T15:45:52.532Z,1.70
2018-11-28T15:48:21.026Z,1.70
2018-11-28T15:50:49.627Z,1.70
2018-11-28T15:53:48.853Z,1.60
2018-11-28T15:56:28.870Z,1.60
2018-11-28T15:58:57.431Z,1.60
2018-11-28T16:01:25.925Z,1.50
2018-11-28T16:03:54.721Z,1.50
2018-11-28T16:06:23.228Z,1.40
2018-11-28T16:08:54.387Z,1.40
2018-11-28T16:11:23.815Z,1.40
2018-11-28T16:13:52.467Z,1.40
2018-11-28T16:16:22.511Z,1.40
2018-11-28T16:18:50.002Z,1.30
2018-11-28T16:21:18.640Z,1.40
2018-11-28T16:23:47.370Z,1.30
2018-11-28T16:26:16.121Z,1.30
2018-11-28T16:28:55.690Z,1.30
2018-11-28T16:31:24.392Z,1.30
2018-11-28T16:33:52.970Z,1.30
2018-11-28T16:36:21.714Z,1.40
2018-11-28T16:38:50.415Z,1.40
2018-11-28T16:41:19.007Z,1.30
2018-11-28T16:43:47.603Z,1.30
2018-11-28T16:46:16.330Z,1.20
2018-11-28T16:48:44.869Z,1.20
2018-11-28T16:51:13.354Z,1.30
2018-11-28T16:53:41.966Z,1.20
2018-11-28T16:56:10.421Z,1.20
2018-11-28T16:58:38.963Z,1.20
2018-11-28T17:01:07.480Z,1.10
2018-11-28T17:03:35.925Z,1.10
2018-11-28T17:06:04.471Z,1.10
2018-11-28T17:08:32.984Z,1.00
2018-11-28T17:11:01.435Z,1.00
2018-11-28T17:13:29.923Z,1.00
2018-11-28T17:15:58.476Z,1.00
2018-11-28T17:18:27.036Z,0.90
2018-11-28T17:20:55.945Z,0.90
2018-11-28T17:23:25.012Z,0.90
2018-11-28T17:25:53.798Z,0.90
2018-11-28T17:28:22.417Z,0.80
2018-11-28T17:30:51.149Z,0.90
2018-11-28T17:33:19.656Z,0.90
2018-11-28T17:35:48.193Z,0.90
2018-11-28T17:38:16.845Z,0.80
2018-11-28T17:40:45.586Z,0.90
2018-11-28T17:43:14.104Z,0.90
2018-11-28T17:45:42.627Z,0.80
2018-11-28T17:48:11.297Z,0.90
2018-11-28T17:50:39.882Z,0.80
2018-11-28T17:53:09.768Z,0.80
2018-11-28T17:55:40.381Z,0.80
2018-11-28T17:58:08.918Z,0.80
2018-11-28T18:00:37.618Z,0.80
2018-11-28T18:03:06.248Z,0.80
2018-11-28T18:05:34.765Z,0.70
2018-11-28T18:08:03.385Z,0.70
2018-11-28T18:10:31.947Z,0.70
2018-11-28T18:13:10.234Z,0.80
2018-11-28T18:15:39.371Z,0.80
2018-11-28T18:18:09.224Z,0.80
2018-11-28T18:20:37.842Z,0.80
2018-11-28T18:23:10.423Z,0.70
2018-11-28T18:25:40.240Z,0.70
2018-11-28T18:28:09.189Z,0.60
2018-11-28T18:30:38.161Z,0.60
2018-11-28T18:33:07.583Z,0.60
2018-11-28T18:35:36.168Z,0.50
2018-11-28T18:38:04.722Z,0.50
2018-11-28T18:40:33.299Z,0.40
2018-11-28T18:43:02.003Z,0.40
2018-11-28T18:45:31.829Z,0.40
2018-11-28T18:48:00.387Z,0.40
2018-11-28T18:50:28.944Z,0.40
2018-11-28T18:52:57.496Z,0.50
2018-11-28T18:55:25.989Z,0.40
2018-11-28T18:57:55.814Z,0.40
2018-11-28T19:00:27.503Z,0.40
2018-11-28T19:02:56.533Z,0.50
2018-11-28T19:05:25.382Z,0.40
2018-11-28T19:07:54.050Z,0.40
2018-11-28T19:10:26.276Z,0.50
2018-11-28T19:13:43.788Z,0.50
2018-11-28T19:16:12.756Z,0.50
2018-11-28T19:18:41.466Z,0.50
2018-11-28T19:21:10.234Z,0.50
2018-11-28T19:23:39.044Z,0.40
2018-11-28T19:26:07.630Z,0.40
2018-11-28T19:28:36.339Z,0.40
2018-11-28T19:31:05.203Z,0.30
2018-11-28T19:33:34.175Z,0.30
2018-11-28T19:36:03.090Z,0.30
2018-11-28T19:38:32.722Z,0.30
2018-11-28T19:41:03.621Z,0.20
2018-11-28T19:43:32.344Z,0.20
2018-11-28T19:46:01.190Z,0.20
2018-11-28T19:48:30.049Z,0.20
2018-11-28T19:51:01.073Z,0.20
2018-11-28T19:53:29.915Z,0.20
2018-11-28T19:56:00.674Z,0.20
2018-11-28T19:58:29.472Z,0.10
2018-11-28T20:00:58.334Z,0.10
2018-11-28T20:03:27.116Z,0.10
2018-11-28T20:05:56.782Z,0.10
2018-11-28T20:08:27.182Z,0.10
2018-11-28T20:11:01.619Z,0.10
2018-11-28T20:16:25.309Z,0.00
2018-11-28T20:18:59.643Z,0.00
2018-11-28T20:21:28.683Z,0.00
2018-11-28T20:23:57.690Z,0.00
2018-11-28T20:26:26.410Z,0.00
2018-11-28T20:28:56.811Z,0.00
2018-11-28T20:31:26.101Z,0.00
2018-11-28T20:33:58.922Z,0.00
2018-11-28T20:36:29.081Z,0.00
2018-11-28T20:38:58.106Z,0.00
2018-11-28T20:41:26.834Z,0.00
2018-11-28T20:43:55.759Z,-0.10
2018-11-28T20:46:24.518Z,-0.10
2018-11-28T20:48:53.568Z,-0.10
2018-11-28T20:51:22.325Z,-0.10
2018-11-28T20:53:51.079Z,-0.20
2018-11-28T20:56:19.952Z,-0.20
2018-11-28T20:58:48.813Z,-0.10
2018-11-28T21:01:18.369Z,-0.20
2018-11-28T21:03:47.474Z,-0.20
2018-11-28T21:06:16.584Z,-0.20
2018-11-28T21:08:45.565Z,-0.10
2018-11-28T21:11:14.628Z,-0.10
2018-11-28T21:13:43.835Z,-0.10
2018-11-28T21:16:13.005Z,-0.10
2018-11-28T21:18:42.984Z,-0.10
2018-11-28T21:21:12.814Z,-0.20
2018-11-28T21:23:42.491Z,-0.10
2018-11-28T21:26:11.379Z,-0.10
2018-11-28T21:28:40.473Z,-0.10
2018-11-28T21:31:09.382Z,-0.10
2018-11-28T21:33:38.151Z,-0.20
2018-11-28T21:36:08.732Z,-0.20
2018-11-28T21:38:42.172Z,-0.20
2018-11-28T21:41:12.737Z,-0.20
2018-11-28T21:43:53.200Z,-0.20
2018-11-28T21:46:22.039Z,-0.20
2018-11-28T21:48:53.207Z,-0.20
2018-11-28T21:58:31.681Z,-0.10
2018-11-28T22:02:33.491Z,-0.20
2018-11-28T22:05:20.783Z,-0.20
2018-11-28T22:08:05.249Z,-0.20
2018-11-28T22:10:35.371Z,-0.20
2018-11-28T22:13:12.259Z,-0.20
2018-11-28T22:16:16.466Z,-0.20
2018-11-28T22:18:57.200Z,-0.20
2018-11-28T22:50:20.126Z,-0.30
2018-11-28T22:52:49.077Z,-0.40
2018-11-28T22:55:18.336Z,-0.40
2018-11-28T22:57:47.712Z,-0.40
2018-11-28T23:00:28.006Z,-0.40
2018-11-28T23:03:01.468Z,-0.40
2018-11-28T23:05:39.242Z,-0.40
2018-11-28T23:08:09.360Z,-0.40
2018-11-28T23:10:38.786Z,-0.40
2018-11-28T23:13:08.772Z,-0.40
2018-11-28T23:15:37.693Z,-0.40
2018-11-28T23:18:07.733Z,-0.50
2018-11-28T23:20:36.650Z,-0.50
2018-11-28T23:23:06.421Z,-0.50
2018-11-28T23:25:35.609Z,-0.60
2018-11-28T23:28:04.909Z,-0.60
2018-11-28T23:30:33.951Z,-0.60
2018-11-28T23:33:05.012Z,-0.60
2018-11-28T23:35:34.537Z,-0.60
2018-11-28T23:38:05.619Z,-0.60
2018-11-28T23:40:35.426Z,-0.50
2018-11-28T23:43:09.571Z,-0.60
2018-11-28T23:45:45.125Z,-0.60
2018-11-28T23:48:14.233Z,-0.60
2018-11-28T23:50:42.960Z,-0.60
2018-11-28T23:53:11.699Z,-0.60
2018-11-28T23:55:43.244Z,-0.60
2018-11-28T23:58:14.116Z,-0.70
